sensor_id;sensor_type;location;lat;lon;timestamp;P1;durP1;ratioP1;P2;durP2;ratioP2
32138;SDS011;18644;48.700;9.210;2024-02-26T00:00:08;2.38;;;1.80;;
32138;SDS011;18644;48.700;9.210;2024-02-26T00:02:36;3.63;;;1.88;;
32138;SDS011;18644;48.700;9.210;2024-02-26T00:05:05;1.88;;;1.60;;
32138;SDS011;18644;48.700;9.210;2024-02-26T00:07:33;2.50;;;1.65;;
32138;SDS011;18644;48.700;9.210;2024-02-26T00:10:00;1.90;;;1.33;;
32138;SDS011;18644;48.700;9.210;2024-02-26T00:12:27;1.63;;;1.13;;
32138;SDS011;18644;48.700;9.210;2024-02-26T00:14:54;2.63;;;1.85;;
32138;SDS011;18644;48.700;9.210;2024-02-26T00:17:24;1.63;;;1.33;;
32138;SDS011;18644;48.700;9.210;2024-02-26T00:19:51;1.08;;;1.02;;
32138;SDS011;18644;48.700;9.210;2024-02-26T00:22:18;1.30;;;1.15;;
32138;SDS011;18644;48.700;9.210;2024-02-26T00:24:45;1.45;;;1.13;;
32138;SDS011;18644;48.700;9.210;2024-02-26T00:27:11;2.00;;;1.20;;
32138;SDS011;18644;48.700;9.210;2024-02-26T00:29:38;1.83;;;1.42;;
32138;SDS011;18644;48.700;9.210;2024-02-26T00:32:05;2.97;;;1.65;;
32138;SDS011;18644;48.700;9.210;2024-02-26T00:34:34;1.60;;;1.48;;
32138;SDS011;18644;48.700;9.210;2024-02-26T00:37:01;2.20;;;1.67;;
32138;SDS011;18644;48.700;9.210;2024-02-26T00:39:28;1.38;;;1.27;;
32138;SDS011;18644;48.700;9.210;2024-02-26T00:41:55;1.80;;;1.25;;
32138;SDS011;18644;48.700;9.210;2024-02-26T00:44:22;1.35;;;1.25;;
32138;SDS011;18644;48.700;9.210;2024-02-26T00:46:49;2.60;;;1.70;;
32138;SDS011;18644;48.700;9.210;2024-02-26T00:49:16;1.75;;;1.40;;
32138;SDS011;18644;48.700;9.210;2024-02-26T00:51:44;2.30;;;1.30;;
32138;SDS011;18644;48.700;9.210;2024-02-26T00:54:11;5.70;;;1.80;;
32138;SDS011;18644;48.700;9.210;2024-02-26T00:56:37;2.35;;;1.70;;
32138;SDS011;18644;48.700;9.210;2024-02-26T00:59:04;2.30;;;1.85;;
32138;SDS011;18644;48.700;9.210;2024-02-26T01:01:31;4.00;;;1.83;;
32138;SDS011;18644;48.700;9.210;2024-02-26T01:03:58;1.50;;;1.33;;
32138;SDS011;18644;48.700;9.210;2024-02-26T01:06:25;3.05;;;2.00;;
32138;SDS011;18644;48.700;9.210;2024-02-26T01:08:53;2.35;;;1.70;;
32138;SDS011;18644;48.700;9.210;2024-02-26T01:11:20;2.25;;;2.00;;
32138;SDS011;18644;48.700;9.210;2024-02-26T01:13:47;1.60;;;1.42;;
32138;SDS011;18644;48.700;9.210;2024-02-26T01:16:14;2.58;;;1.75;;
32138;SDS011;18644;48.700;9.210;2024-02-26T01:18:41;1.98;;;1.50;;
32138;SDS011;18644;48.700;9.210;2024-02-26T01:21:08;1.77;;;1.40;;
32138;SDS011;18644;48.700;9.210;2024-02-26T01:23:34;2.45;;;1.48;;
32138;SDS011;18644;48.700;9.210;2024-02-26T01:26:03;2.00;;;1.20;;
32138;SDS011;18644;48.700;9.210;2024-02-26T01:28:30;1.15;;;1.00;;
32138;SDS011;18644;48.700;9.210;2024-02-26T01:30:57;1.45;;;1.35;;
32138;SDS011;18644;48.700;9.210;2024-02-26T01:33:25;2.38;;;1.38;;
32138;SDS011;18644;48.700;9.210;2024-02-26T01:35:52;2.78;;;1.92;;
32138;SDS011;18644;48.700;9.210;2024-02-26T01:38:19;1.63;;;1.40;;
32138;SDS011;18644;48.700;9.210;2024-02-26T01:40:46;1.70;;;1.60;;
32138;SDS011;18644;48.700;9.210;2024-02-26T01:43:14;1.73;;;1.42;;
32138;SDS011;18644;48.700;9.210;2024-02-26T01:45:41;2.65;;;1.85;;
32138;SDS011;18644;48.700;9.210;2024-02-26T01:48:07;2.08;;;1.23;;
32138;SDS011;18644;48.700;9.210;2024-02-26T01:50:35;1.30;;;1.20;;
32138;SDS011;18644;48.700;9.210;2024-02-26T01:53:03;1.73;;;1.40;;
32138;SDS011;18644;48.700;9.210;2024-02-26T01:55:31;2.38;;;1.40;;
32138;SDS011;18644;48.700;9.210;2024-02-26T01:57:58;2.97;;;1.70;;
32138;SDS011;18644;48.700;9.210;2024-02-26T02:00:26;2.38;;;1.55;;
32138;SDS011;18644;48.700;9.210;2024-02-26T02:02:54;1.55;;;1.45;;
32138;SDS011;18644;48.700;9.210;2024-02-26T02:05:21;1.55;;;1.45;;
32138;SDS011;18644;48.700;9.210;2024-02-26T02:07:48;2.80;;;1.50;;
32138;SDS011;18644;48.700;9.210;2024-02-26T02:10:16;2.80;;;1.88;;
32138;SDS011;18644;48.700;9.210;2024-02-26T02:12:47;1.77;;;1.50;;
32138;SDS011;18644;48.700;9.210;2024-02-26T02:15:15;2.95;;;1.83;;
32138;SDS011;18644;48.700;9.210;2024-02-26T02:17:43;2.20;;;1.73;;
32138;SDS011;18644;48.700;9.210;2024-02-26T02:20:14;1.27;;;1.17;;
32138;SDS011;18644;48.700;9.210;2024-02-26T02:22:44;2.75;;;1.40;;
32138;SDS011;18644;48.700;9.210;2024-02-26T02:25:11;3.47;;;1.60;;
32138;SDS011;18644;48.700;9.210;2024-02-26T02:27:38;2.05;;;1.50;;
32138;SDS011;18644;48.700;9.210;2024-02-26T02:30:06;2.10;;;1.80;;
32138;SDS011;18644;48.700;9.210;2024-02-26T02:32:35;2.60;;;1.55;;
32138;SDS011;18644;48.700;9.210;2024-02-26T02:35:04;2.50;;;1.42;;
32138;SDS011;18644;48.700;9.210;2024-02-26T02:37:32;1.73;;;1.10;;
32138;SDS011;18644;48.700;9.210;2024-02-26T02:40:00;1.52;;;1.30;;
32138;SDS011;18644;48.700;9.210;2024-02-26T02:42:27;2.00;;;1.40;;
32138;SDS011;18644;48.700;9.210;2024-02-26T02:44:54;2.03;;;1.65;;
32138;SDS011;18644;48.700;9.210;2024-02-26T02:47:21;1.70;;;1.60;;
32138;SDS011;18644;48.700;9.210;2024-02-26T02:49:48;1.88;;;1.33;;
32138;SDS011;18644;48.700;9.210;2024-02-26T02:52:14;1.40;;;1.17;;
32138;SDS011;18644;48.700;9.210;2024-02-26T02:54:41;1.10;;;1.00;;
32138;SDS011;18644;48.700;9.210;2024-02-26T02:57:09;0.93;;;0.90;;
32138;SDS011;18644;48.700;9.210;2024-02-26T02:59:37;0.77;;;0.77;;
32138;SDS011;18644;48.700;9.210;2024-02-26T03:02:04;1.23;;;0.98;;
32138;SDS011;18644;48.700;9.210;2024-02-26T03:04:31;1.27;;;1.05;;
32138;SDS011;18644;48.700;9.210;2024-02-26T03:06:58;0.80;;;0.80;;
32138;SDS011;18644;48.700;9.210;2024-02-26T03:09:25;1.50;;;1.00;;
32138;SDS011;18644;48.700;9.210;2024-02-26T03:11:52;1.20;;;1.10;;
32138;SDS011;18644;48.700;9.210;2024-02-26T03:14:20;1.83;;;1.45;;
32138;SDS011;18644;48.700;9.210;2024-02-26T03:16:47;0.85;;;0.85;;
32138;SDS011;18644;48.700;9.210;2024-02-26T03:19:14;1.05;;;0.90;;
32138;SDS011;18644;48.700;9.210;2024-02-26T03:21:42;1.67;;;1.20;;
32138;SDS011;18644;48.700;9.210;2024-02-26T03:24:08;1.10;;;1.00;;
32138;SDS011;18644;48.700;9.210;2024-02-26T03:26:37;1.45;;;1.25;;
32138;SDS011;18644;48.700;9.210;2024-02-26T03:29:04;1.10;;;0.85;;
32138;SDS011;18644;48.700;9.210;2024-02-26T03:31:32;1.20;;;1.10;;
32138;SDS011;18644;48.700;9.210;2024-02-26T03:33:59;1.13;;;0.98;;
32138;SDS011;18644;48.700;9.210;2024-02-26T03:36:26;1.38;;;1.00;;
32138;SDS011;18644;48.700;9.210;2024-02-26T03:38:52;1.60;;;0.90;;
32138;SDS011;18644;48.700;9.210;2024-02-26T03:41:19;0.95;;;0.93;;
32138;SDS011;18644;48.700;9.210;2024-02-26T03:43:45;3.25;;;1.05;;
32138;SDS011;18644;48.700;9.210;2024-02-26T03:46:12;1.00;;;0.90;;
32138;SDS011;18644;48.700;9.210;2024-02-26T03:48:40;1.50;;;1.20;;
32138;SDS011;18644;48.700;9.210;2024-02-26T03:51:08;1.55;;;1.30;;
32138;SDS011;18644;48.700;9.210;2024-02-26T03:53:35;1.77;;;1.20;;
32138;SDS011;18644;48.700;9.210;2024-02-26T03:56:02;1.48;;;1.38;;
32138;SDS011;18644;48.700;9.210;2024-02-26T03:58:30;1.35;;;1.15;;
32138;SDS011;18644;48.700;9.210;2024-02-26T04:00:57;1.30;;;1.20;;
32138;SDS011;18644;48.700;9.210;2024-02-26T04:03:25;2.30;;;1.38;;
32138;SDS011;18644;48.700;9.210;2024-02-26T04:05:53;1.52;;;1.30;;
32138;SDS011;18644;48.700;9.210;2024-02-26T04:08:20;1.50;;;1.40;;
32138;SDS011;18644;48.700;9.210;2024-02-26T04:10:47;1.88;;;1.48;;
32138;SDS011;18644;48.700;9.210;2024-02-26T04:13:14;1.40;;;1.30;;
32138;SDS011;18644;48.700;9.210;2024-02-26T04:15:41;1.30;;;1.20;;
32138;SDS011;18644;48.700;9.210;2024-02-26T04:18:08;1.92;;;1.73;;
32138;SDS011;18644;48.700;9.210;2024-02-26T04:20:34;2.17;;;1.73;;
32138;SDS011;18644;48.700;9.210;2024-02-26T04:23:03;1.80;;;1.30;;
32138;SDS011;18644;48.700;9.210;2024-02-26T04:25:30;2.22;;;1.35;;
32138;SDS011;18644;48.700;9.210;2024-02-26T04:27:57;2.03;;;1.50;;
32138;SDS011;18644;48.700;9.210;2024-02-26T04:30:24;1.85;;;1.40;;
32138;SDS011;18644;48.700;9.210;2024-02-26T04:32:51;1.90;;;1.30;;
32138;SDS011;18644;48.700;9.210;2024-02-26T04:35:18;2.17;;;1.70;;
32138;SDS011;18644;48.700;9.210;2024-02-26T04:37:45;1.95;;;1.75;;
32138;SDS011;18644;48.700;9.210;2024-02-26T04:40:16;2.58;;;1.33;;
32138;SDS011;18644;48.700;9.210;2024-02-26T04:42:43;1.88;;;1.67;;
32138;SDS011;18644;48.700;9.210;2024-02-26T04:45:09;3.05;;;1.27;;
32138;SDS011;18644;48.700;9.210;2024-02-26T04:47:36;1.92;;;1.50;;
32138;SDS011;18644;48.700;9.210;2024-02-26T04:50:03;2.33;;;1.60;;
32138;SDS011;18644;48.700;9.210;2024-02-26T04:52:31;2.95;;;1.60;;
32138;SDS011;18644;48.700;9.210;2024-02-26T04:54:58;2.13;;;1.48;;
32138;SDS011;18644;48.700;9.210;2024-02-26T04:57:27;2.30;;;1.42;;
32138;SDS011;18644;48.700;9.210;2024-02-26T04:59:54;1.58;;;1.48;;
32138;SDS011;18644;48.700;9.210;2024-02-26T05:02:21;1.63;;;1.38;;
32138;SDS011;18644;48.700;9.210;2024-02-26T05:04:47;1.83;;;1.50;;
32138;SDS011;18644;48.700;9.210;2024-02-26T05:07:14;1.50;;;1.40;;
32138;SDS011;18644;48.700;9.210;2024-02-26T05:09:42;1.50;;;1.35;;
32138;SDS011;18644;48.700;9.210;2024-02-26T05:12:09;1.80;;;1.40;;
32138;SDS011;18644;48.700;9.210;2024-02-26T05:14:37;1.88;;;1.63;;
32138;SDS011;18644;48.700;9.210;2024-02-26T05:17:05;2.03;;;1.73;;
32138;SDS011;18644;48.700;9.210;2024-02-26T05:19:32;1.70;;;1.42;;
32138;SDS011;18644;48.700;9.210;2024-02-26T05:21:58;1.25;;;1.15;;
32138;SDS011;18644;48.700;9.210;2024-02-26T05:24:25;2.03;;;1.60;;
32138;SDS011;18644;48.700;9.210;2024-02-26T05:26:53;2.08;;;1.67;;
32138;SDS011;18644;48.700;9.210;2024-02-26T05:29:20;2.40;;;1.52;;
32138;SDS011;18644;48.700;9.210;2024-02-26T05:31:48;3.20;;;1.67;;
32138;SDS011;18644;48.700;9.210;2024-02-26T05:34:15;2.08;;;1.67;;
32138;SDS011;18644;48.700;9.210;2024-02-26T05:36:42;2.10;;;1.48;;
32138;SDS011;18644;48.700;9.210;2024-02-26T05:39:09;3.05;;;1.75;;
32138;SDS011;18644;48.700;9.210;2024-02-26T05:41:37;2.00;;;1.60;;
32138;SDS011;18644;48.700;9.210;2024-02-26T05:44:03;3.80;;;2.20;;
32138;SDS011;18644;48.700;9.210;2024-02-26T05:46:30;3.63;;;1.90;;
32138;SDS011;18644;48.700;9.210;2024-02-26T05:48:58;4.85;;;1.58;;
32138;SDS011;18644;48.700;9.210;2024-02-26T05:51:25;1.58;;;1.25;;
32138;SDS011;18644;48.700;9.210;2024-02-26T05:53:52;1.67;;;1.50;;
32138;SDS011;18644;48.700;9.210;2024-02-26T05:56:20;1.75;;;1.52;;
32138;SDS011;18644;48.700;9.210;2024-02-26T05:58:47;2.75;;;1.60;;
32138;SDS011;18644;48.700;9.210;2024-02-26T06:01:15;1.75;;;1.48;;
32138;SDS011;18644;48.700;9.210;2024-02-26T06:03:44;2.92;;;1.50;;
32138;SDS011;18644;48.700;9.210;2024-02-26T06:06:12;1.77;;;1.48;;
32138;SDS011;18644;48.700;9.210;2024-02-26T06:08:40;2.60;;;1.70;;
32138;SDS011;18644;48.700;9.210;2024-02-26T06:11:07;1.50;;;1.40;;
32138;SDS011;18644;48.700;9.210;2024-02-26T06:13:34;2.28;;;1.50;;
32138;SDS011;18644;48.700;9.210;2024-02-26T06:16:00;2.08;;;1.48;;
32138;SDS011;18644;48.700;9.210;2024-02-26T06:18:27;1.52;;;1.42;;
32138;SDS011;18644;48.700;9.210;2024-02-26T06:20:55;2.55;;;1.55;;
32138;SDS011;18644;48.700;9.210;2024-02-26T06:23:23;1.40;;;1.30;;
32138;SDS011;18644;48.700;9.210;2024-02-26T06:25:50;1.60;;;1.50;;
32138;SDS011;18644;48.700;9.210;2024-02-26T06:28:17;1.92;;;1.70;;
32138;SDS011;18644;48.700;9.210;2024-02-26T06:30:44;2.85;;;1.73;;
32138;SDS011;18644;48.700;9.210;2024-02-26T06:33:11;2.75;;;1.65;;
32138;SDS011;18644;48.700;9.210;2024-02-26T06:35:39;2.55;;;1.88;;
32138;SDS011;18644;48.700;9.210;2024-02-26T06:38:06;2.63;;;1.70;;
32138;SDS011;18644;48.700;9.210;2024-02-26T06:40:34;1.67;;;1.58;;
32138;SDS011;18644;48.700;9.210;2024-02-26T06:43:01;2.20;;;1.60;;
32138;SDS011;18644;48.700;9.210;2024-02-26T06:45:28;3.38;;;1.50;;
32138;SDS011;18644;48.700;9.210;2024-02-26T06:47:55;1.73;;;1.40;;
32138;SDS011;18644;48.700;9.210;2024-02-26T06:50:22;1.40;;;1.30;;
32138;SDS011;18644;48.700;9.210;2024-02-26T06:52:49;1.58;;;1.40;;
32138;SDS011;18644;48.700;9.210;2024-02-26T06:55:16;1.77;;;1.40;;
32138;SDS011;18644;48.700;9.210;2024-02-26T06:57:44;1.75;;;1.50;;
32138;SDS011;18644;48.700;9.210;2024-02-26T07:00:11;1.60;;;1.20;;
32138;SDS011;18644;48.700;9.210;2024-02-26T07:02:41;1.60;;;1.33;;
32138;SDS011;18644;48.700;9.210;2024-02-26T07:05:08;2.03;;;1.50;;
32138;SDS011;18644;48.700;9.210;2024-02-26T07:07:35;3.17;;;1.40;;
32138;SDS011;18644;48.700;9.210;2024-02-26T07:10:02;1.65;;;1.50;;
32138;SDS011;18644;48.700;9.210;2024-02-26T07:12:30;1.85;;;1.20;;
32138;SDS011;18644;48.700;9.210;2024-02-26T07:14:59;1.55;;;1.33;;
32138;SDS011;18644;48.700;9.210;2024-02-26T07:17:26;2.05;;;1.10;;
32138;SDS011;18644;48.700;9.210;2024-02-26T07:19:52;1.75;;;1.55;;
32138;SDS011;18644;48.700;9.210;2024-02-26T07:22:19;1.48;;;1.30;;
32138;SDS011;18644;48.700;9.210;2024-02-26T07:24:46;1.55;;;1.42;;
32138;SDS011;18644;48.700;9.210;2024-02-26T07:27:13;1.75;;;1.30;;
32138;SDS011;18644;48.700;9.210;2024-02-26T07:29:42;2.22;;;1.27;;
32138;SDS011;18644;48.700;9.210;2024-02-26T07:32:10;1.35;;;1.17;;
32138;SDS011;18644;48.700;9.210;2024-02-26T07:34:37;4.13;;;2.70;;
32138;SDS011;18644;48.700;9.210;2024-02-26T07:37:06;4.95;;;3.53;;
32138;SDS011;18644;48.700;9.210;2024-02-26T07:39:33;7.93;;;4.53;;
32138;SDS011;18644;48.700;9.210;2024-02-26T07:42:00;7.18;;;4.22;;
32138;SDS011;18644;48.700;9.210;2024-02-26T07:44:27;10.60;;;4.70;;
32138;SDS011;18644;48.700;9.210;2024-02-26T07:46:54;5.88;;;3.88;;
32138;SDS011;18644;48.700;9.210;2024-02-26T07:49:22;8.93;;;4.72;;
32138;SDS011;18644;48.700;9.210;2024-02-26T07:51:49;9.80;;;5.38;;
32138;SDS011;18644;48.700;9.210;2024-02-26T07:54:16;9.57;;;4.93;;
32138;SDS011;18644;48.700;9.210;2024-02-26T07:56:44;9.32;;;4.40;;
32138;SDS011;18644;48.700;9.210;2024-02-26T07:59:11;16.75;;;7.35;;
32138;SDS011;18644;48.700;9.210;2024-02-26T08:01:38;10.00;;;5.50;;
32138;SDS011;18644;48.700;9.210;2024-02-26T08:04:06;8.45;;;5.13;;
32138;SDS011;18644;48.700;9.210;2024-02-26T08:06:34;10.10;;;5.30;;
32138;SDS011;18644;48.700;9.210;2024-02-26T08:09:01;9.07;;;3.85;;
32138;SDS011;18644;48.700;9.210;2024-02-26T08:11:29;4.25;;;2.63;;
32138;SDS011;18644;48.700;9.210;2024-02-26T08:13:56;4.32;;;2.40;;
32138;SDS011;18644;48.700;9.210;2024-02-26T08:16:24;3.67;;;2.58;;
32138;SDS011;18644;48.700;9.210;2024-02-26T08:18:50;3.38;;;2.13;;
32138;SDS011;18644;48.700;9.210;2024-02-26T08:21:17;2.55;;;1.85;;
32138;SDS011;18644;48.700;9.210;2024-02-26T08:23:46;3.00;;;2.17;;
32138;SDS011;18644;48.700;9.210;2024-02-26T08:26:12;1.83;;;1.60;;
32138;SDS011;18644;48.700;9.210;2024-02-26T08:28:39;2.70;;;1.90;;
32138;SDS011;18644;48.700;9.210;2024-02-26T08:31:06;2.95;;;1.80;;
32138;SDS011;18644;48.700;9.210;2024-02-26T08:33:33;2.85;;;2.05;;
32138;SDS011;18644;48.700;9.210;2024-02-26T08:36:03;2.47;;;1.80;;
32138;SDS011;18644;48.700;9.210;2024-02-26T08:38:31;1.63;;;1.52;;
32138;SDS011;18644;48.700;9.210;2024-02-26T08:41:01;2.20;;;1.73;;
32138;SDS011;18644;48.700;9.210;2024-02-26T08:43:28;1.92;;;1.73;;
32138;SDS011;18644;48.700;9.210;2024-02-26T08:45:55;1.67;;;1.23;;
32138;SDS011;18644;48.700;9.210;2024-02-26T08:48:22;3.78;;;2.20;;
32138;SDS011;18644;48.700;9.210;2024-02-26T08:50:49;2.90;;;1.55;;
32138;SDS011;18644;48.700;9.210;2024-02-26T08:53:16;2.53;;;1.83;;
32138;SDS011;18644;48.700;9.210;2024-02-26T08:55:43;3.53;;;2.13;;
32138;SDS011;18644;48.700;9.210;2024-02-26T08:58:11;3.20;;;2.10;;
32138;SDS011;18644;48.700;9.210;2024-02-26T09:00:38;2.33;;;1.80;;
32138;SDS011;18644;48.700;9.210;2024-02-26T09:03:05;3.80;;;2.33;;
32138;SDS011;18644;48.700;9.210;2024-02-26T09:05:31;3.35;;;2.17;;
32138;SDS011;18644;48.700;9.210;2024-02-26T09:07:58;2.05;;;1.67;;
32138;SDS011;18644;48.700;9.210;2024-02-26T09:10:25;3.38;;;2.40;;
32138;SDS011;18644;48.700;9.210;2024-02-26T09:12:52;2.75;;;2.03;;
32138;SDS011;18644;48.700;9.210;2024-02-26T09:15:21;4.28;;;2.22;;
32138;SDS011;18644;48.700;9.210;2024-02-26T09:17:48;2.60;;;1.85;;
32138;SDS011;18644;48.700;9.210;2024-02-26T09:20:16;2.03;;;1.83;;
32138;SDS011;18644;48.700;9.210;2024-02-26T09:22:45;3.35;;;1.90;;
32138;SDS011;18644;48.700;9.210;2024-02-26T09:25:12;7.97;;;2.45;;
32138;SDS011;18644;48.700;9.210;2024-02-26T09:27:40;2.65;;;2.00;;
32138;SDS011;18644;48.700;9.210;2024-02-26T09:30:07;5.65;;;2.03;;
32138;SDS011;18644;48.700;9.210;2024-02-26T09:32:37;3.05;;;2.30;;
32138;SDS011;18644;48.700;9.210;2024-02-26T09:35:05;4.20;;;2.17;;
32138;SDS011;18644;48.700;9.210;2024-02-26T09:37:33;2.97;;;1.85;;
32138;SDS011;18644;48.700;9.210;2024-02-26T09:40:01;3.05;;;2.20;;
32138;SDS011;18644;48.700;9.210;2024-02-26T09:42:31;8.27;;;2.50;;
32138;SDS011;18644;48.700;9.210;2024-02-26T09:44:59;5.63;;;2.75;;
32138;SDS011;18644;48.700;9.210;2024-02-26T09:47:28;3.38;;;2.38;;
32138;SDS011;18644;48.700;9.210;2024-02-26T09:50:00;2.63;;;2.15;;
32138;SDS011;18644;48.700;9.210;2024-02-26T09:52:28;3.55;;;2.35;;
32138;SDS011;18644;48.700;9.210;2024-02-26T09:54:59;2.65;;;1.80;;
32138;SDS011;18644;48.700;9.210;2024-02-26T09:57:28;2.75;;;2.05;;
32138;SDS011;18644;48.700;9.210;2024-02-26T09:59:55;6.82;;;2.70;;
32138;SDS011;18644;48.700;9.210;2024-02-26T10:02:26;2.00;;;1.80;;
32138;SDS011;18644;48.700;9.210;2024-02-26T10:04:54;8.07;;;2.10;;
32138;SDS011;18644;48.700;9.210;2024-02-26T10:07:24;2.47;;;1.88;;
32138;SDS011;18644;48.700;9.210;2024-02-26T10:09:51;2.85;;;1.88;;
32138;SDS011;18644;48.700;9.210;2024-02-26T10:12:18;4.07;;;2.03;;
32138;SDS011;18644;48.700;9.210;2024-02-26T10:14:46;2.53;;;1.80;;
32138;SDS011;18644;48.700;9.210;2024-02-26T10:17:13;2.95;;;1.77;;
32138;SDS011;18644;48.700;9.210;2024-02-26T10:19:40;2.08;;;1.80;;
32138;SDS011;18644;48.700;9.210;2024-02-26T10:22:07;3.35;;;1.70;;
32138;SDS011;18644;48.700;9.210;2024-02-26T10:24:35;4.38;;;1.80;;
32138;SDS011;18644;48.700;9.210;2024-02-26T10:27:02;2.08;;;1.70;;
32138;SDS011;18644;48.700;9.210;2024-02-26T10:29:31;4.13;;;2.20;;
32138;SDS011;18644;48.700;9.210;2024-02-26T10:31:57;2.60;;;1.98;;
32138;SDS011;18644;48.700;9.210;2024-02-26T10:34:24;2.65;;;1.95;;
32138;SDS011;18644;48.700;9.210;2024-02-26T10:36:53;3.45;;;1.92;;
32138;SDS011;18644;48.700;9.210;2024-02-26T10:39:20;2.20;;;1.50;;
32138;SDS011;18644;48.700;9.210;2024-02-26T10:41:48;3.08;;;1.90;;
32138;SDS011;18644;48.700;9.210;2024-02-26T10:44:16;2.17;;;1.52;;
32138;SDS011;18644;48.700;9.210;2024-02-26T10:46:44;4.38;;;1.83;;
32138;SDS011;18644;48.700;9.210;2024-02-26T10:49:14;2.13;;;1.65;;
32138;SDS011;18644;48.700;9.210;2024-02-26T10:51:44;3.13;;;2.10;;
32138;SDS011;18644;48.700;9.210;2024-02-26T10:54:17;2.60;;;1.60;;
32138;SDS011;18644;48.700;9.210;2024-02-26T10:56:45;2.20;;;1.70;;
32138;SDS011;18644;48.700;9.210;2024-02-26T10:59:15;2.15;;;1.63;;
32138;SDS011;18644;48.700;9.210;2024-02-26T11:01:45;2.92;;;1.65;;
32138;SDS011;18644;48.700;9.210;2024-02-26T11:04:14;2.00;;;1.58;;
32138;SDS011;18644;48.700;9.210;2024-02-26T11:06:42;1.77;;;1.45;;
32138;SDS011;18644;48.700;9.210;2024-02-26T11:09:10;2.15;;;1.70;;
32138;SDS011;18644;48.700;9.210;2024-02-26T11:11:39;1.40;;;1.23;;
32138;SDS011;18644;48.700;9.210;2024-02-26T11:14:09;2.13;;;1.38;;
32138;SDS011;18644;48.700;9.210;2024-02-26T11:16:38;1.73;;;1.50;;
32138;SDS011;18644;48.700;9.210;2024-02-26T11:19:06;2.28;;;1.58;;
32138;SDS011;18644;48.700;9.210;2024-02-26T11:21:35;10.30;;;2.30;;
32138;SDS011;18644;48.700;9.210;2024-02-26T11:24:06;1.55;;;1.45;;
32138;SDS011;18644;48.700;9.210;2024-02-26T11:26:38;3.08;;;1.63;;
32138;SDS011;18644;48.700;9.210;2024-02-26T11:29:13;1.55;;;1.45;;
32138;SDS011;18644;48.700;9.210;2024-02-26T11:31:46;1.60;;;1.38;;
32138;SDS011;18644;48.700;9.210;2024-02-26T11:34:14;2.33;;;1.50;;
32138;SDS011;18644;48.700;9.210;2024-02-26T11:36:41;1.38;;;1.27;;
32138;SDS011;18644;48.700;9.210;2024-02-26T11:39:08;1.58;;;1.08;;
32138;SDS011;18644;48.700;9.210;2024-02-26T11:44:06;5.32;;;0.93;;
32138;SDS011;18644;48.700;9.210;2024-02-26T11:46:39;1.30;;;1.10;;
32138;SDS011;18644;48.700;9.210;2024-02-26T11:51:57;1.30;;;1.10;;
32138;SDS011;18644;48.700;9.210;2024-02-26T11:54:38;0.98;;;0.85;;
32138;SDS011;18644;48.700;9.210;2024-02-26T11:57:22;1.63;;;1.08;;
32138;SDS011;18644;48.700;9.210;2024-02-26T11:59:51;1.10;;;1.00;;
32138;SDS011;18644;48.700;9.210;2024-02-26T12:02:39;1.00;;;0.90;;
32138;SDS011;18644;48.700;9.210;2024-02-26T12:05:09;1.08;;;0.80;;
32138;SDS011;18644;48.700;9.210;2024-02-26T12:07:42;1.45;;;0.90;;
32138;SDS011;18644;48.700;9.210;2024-02-26T12:10:23;0.80;;;0.80;;
32138;SDS011;18644;48.700;9.210;2024-02-26T12:12:53;1.20;;;0.73;;
32138;SDS011;18644;48.700;9.210;2024-02-26T12:15:29;0.65;;;0.60;;
32138;SDS011;18644;48.700;9.210;2024-02-26T12:18:01;0.80;;;0.80;;
32138;SDS011;18644;48.700;9.210;2024-02-26T12:20:29;1.23;;;0.80;;
32138;SDS011;18644;48.700;9.210;2024-02-26T12:22:57;0.93;;;0.73;;
32138;SDS011;18644;48.700;9.210;2024-02-26T12:25:25;1.38;;;0.85;;
32138;SDS011;18644;48.700;9.210;2024-02-26T12:27:54;0.85;;;0.63;;
32138;SDS011;18644;48.700;9.210;2024-02-26T12:30:22;0.88;;;0.70;;
32138;SDS011;18644;48.700;9.210;2024-02-26T12:32:50;1.10;;;0.77;;
32138;SDS011;18644;48.700;9.210;2024-02-26T12:35:23;1.35;;;0.90;;
32138;SDS011;18644;48.700;9.210;2024-02-26T12:37:51;0.85;;;0.77;;
32138;SDS011;18644;48.700;9.210;2024-02-26T12:40:19;1.20;;;0.80;;
32138;SDS011;18644;48.700;9.210;2024-02-26T12:42:47;0.93;;;0.75;;
32138;SDS011;18644;48.700;9.210;2024-02-26T12:45:14;1.17;;;0.80;;
32138;SDS011;18644;48.700;9.210;2024-02-26T12:47:41;0.80;;;0.75;;
32138;SDS011;18644;48.700;9.210;2024-02-26T12:50:10;0.70;;;0.65;;
32138;SDS011;18644;48.700;9.210;2024-02-26T12:52:40;3.15;;;0.90;;
32138;SDS011;18644;48.700;9.210;2024-02-26T12:55:13;0.60;;;0.60;;
32138;SDS011;18644;48.700;9.210;2024-02-26T12:57:42;1.00;;;0.80;;
32138;SDS011;18644;48.700;9.210;2024-02-26T13:00:12;1.10;;;0.75;;
32138;SDS011;18644;48.700;9.210;2024-02-26T13:02:42;3.15;;;1.00;;
32138;SDS011;18644;48.700;9.210;2024-02-26T13:05:10;1.25;;;0.70;;
32138;SDS011;18644;48.700;9.210;2024-02-26T13:07:41;0.93;;;0.70;;
32138;SDS011;18644;48.700;9.210;2024-02-26T13:10:09;1.10;;;0.80;;
32138;SDS011;18644;48.700;9.210;2024-02-26T13:12:41;0.55;;;0.55;;
32138;SDS011;18644;48.700;9.210;2024-02-26T13:15:13;1.27;;;1.17;;
32138;SDS011;18644;48.700;9.210;2024-02-26T13:17:42;0.98;;;0.80;;
32138;SDS011;18644;48.700;9.210;2024-02-26T13:20:09;0.93;;;0.63;;
32138;SDS011;18644;48.700;9.210;2024-02-26T13:22:36;0.60;;;0.60;;
32138;SDS011;18644;48.700;9.210;2024-02-26T13:25:05;1.13;;;0.40;;
32138;SDS011;18644;48.700;9.210;2024-02-26T13:27:33;2.03;;;1.27;;
32138;SDS011;18644;48.700;9.210;2024-02-26T13:30:04;2.00;;;0.80;;
32138;SDS011;18644;48.700;9.210;2024-02-26T13:32:35;1.08;;;0.90;;
32138;SDS011;18644;48.700;9.210;2024-02-26T13:35:05;1.88;;;1.27;;
32138;SDS011;18644;48.700;9.210;2024-02-26T13:37:33;1.20;;;1.05;;
32138;SDS011;18644;48.700;9.210;2024-02-26T13:40:01;1.10;;;0.95;;
32138;SDS011;18644;48.700;9.210;2024-02-26T13:42:33;1.15;;;0.70;;
32138;SDS011;18644;48.700;9.210;2024-02-26T13:45:00;1.20;;;0.80;;
32138;SDS011;18644;48.700;9.210;2024-02-26T13:47:27;0.50;;;0.50;;
32138;SDS011;18644;48.700;9.210;2024-02-26T13:49:54;0.75;;;0.70;;
32138;SDS011;18644;48.700;9.210;2024-02-26T13:52:22;0.50;;;0.50;;
32138;SDS011;18644;48.700;9.210;2024-02-26T13:54:49;0.88;;;0.60;;
32138;SDS011;18644;48.700;9.210;2024-02-26T13:57:18;0.77;;;0.60;;
32138;SDS011;18644;48.700;9.210;2024-02-26T13:59:45;0.93;;;0.68;;
32138;SDS011;18644;48.700;9.210;2024-02-26T14:02:12;0.50;;;0.50;;
32138;SDS011;18644;48.700;9.210;2024-02-26T14:04:39;0.88;;;0.70;;
32138;SDS011;18644;48.700;9.210;2024-02-26T14:07:06;0.50;;;0.50;;
32138;SDS011;18644;48.700;9.210;2024-02-26T14:09:34;0.82;;;0.57;;
32138;SDS011;18644;48.700;9.210;2024-02-26T14:12:01;0.90;;;0.70;;
32138;SDS011;18644;48.700;9.210;2024-02-26T14:14:30;0.52;;;0.52;;
32138;SDS011;18644;48.700;9.210;2024-02-26T14:17:00;0.43;;;0.40;;
32138;SDS011;18644;48.700;9.210;2024-02-26T14:19:28;0.57;;;0.50;;
32138;SDS011;18644;48.700;9.210;2024-02-26T14:21:55;0.32;;;0.30;;
32138;SDS011;18644;48.700;9.210;2024-02-26T14:24:22;0.57;;;0.57;;
32138;SDS011;18644;48.700;9.210;2024-02-26T14:26:49;1.42;;;0.50;;
32138;SDS011;18644;48.700;9.210;2024-02-26T14:29:16;0.50;;;0.50;;
32138;SDS011;18644;48.700;9.210;2024-02-26T14:31:44;0.50;;;0.50;;
32138;SDS011;18644;48.700;9.210;2024-02-26T14:34:11;3.50;;;0.60;;
32138;SDS011;18644;48.700;9.210;2024-02-26T14:36:38;1.10;;;0.63;;
32138;SDS011;18644;48.700;9.210;2024-02-26T14:39:05;1.58;;;1.00;;
32138;SDS011;18644;48.700;9.210;2024-02-26T14:41:32;0.60;;;0.60;;
32138;SDS011;18644;48.700;9.210;2024-02-26T14:43:58;2.35;;;0.75;;
32138;SDS011;18644;48.700;9.210;2024-02-26T14:46:25;2.13;;;0.60;;
32138;SDS011;18644;48.700;9.210;2024-02-26T14:48:53;0.68;;;0.63;;
32138;SDS011;18644;48.700;9.210;2024-02-26T14:51:21;0.85;;;0.70;;
32138;SDS011;18644;48.700;9.210;2024-02-26T14:53:48;0.93;;;0.70;;
32138;SDS011;18644;48.700;9.210;2024-02-26T14:56:15;0.98;;;0.68;;